sensor_id;sensor_type;location;lat;lon;timestamp;P1;durP1;ratioP1;P2;durP2;ratioP2
45694;SDS011;31408;45.468;9.124;2024-01-15T00:01:36;51.90;;;27.10;;
45694;SDS011;31408;45.468;9.124;2024-01-15T00:04:02;52.35;;;26.38;;
45694;SDS011;31408;45.468;9.124;2024-01-15T00:06:27;48.88;;;26.45;;
45694;SDS011;31408;45.468;9.124;2024-01-15T00:08:53;59.50;;;29.33;;
45694;SDS011;31408;45.468;9.124;2024-01-15T00:11:19;44.25;;;26.05;;
45694;SDS011;31408;45.468;9.124;2024-01-15T00:13:44;44.80;;;26.17;;
45694;SDS011;31408;45.468;9.124;2024-01-15T00:16:09;50.10;;;28.52;;
45694;SDS011;31408;45.468;9.124;2024-01-15T00:18:35;45.58;;;26.10;;
45694;SDS011;31408;45.468;9.124;2024-01-15T00:21:00;49.13;;;26.67;;
45694;SDS011;31408;45.468;9.124;2024-01-15T00:23:26;45.38;;;23.75;;
45694;SDS011;31408;45.468;9.124;2024-01-15T00:25:51;48.63;;;24.45;;
45694;SDS011;31408;45.468;9.124;2024-01-15T00:28:16;51.30;;;25.42;;
45694;SDS011;31408;45.468;9.124;2024-01-15T00:30:47;47.47;;;22.85;;
45694;SDS011;31408;45.468;9.124;2024-01-15T00:33:12;51.47;;;24.88;;
45694;SDS011;31408;45.468;9.124;2024-01-15T00:35:39;47.88;;;24.83;;
45694;SDS011;31408;45.468;9.124;2024-01-15T00:38:05;39.95;;;23.45;;
45694;SDS011;31408;45.468;9.124;2024-01-15T00:40:30;50.58;;;25.52;;
45694;SDS011;31408;45.468;9.124;2024-01-15T00:42:55;54.97;;;27.23;;
45694;SDS011;31408;45.468;9.124;2024-01-15T00:45:21;47.63;;;24.60;;
45694;SDS011;31408;45.468;9.124;2024-01-15T00:47:46;47.97;;;26.10;;
45694;SDS011;31408;45.468;9.124;2024-01-15T00:50:17;45.08;;;23.13;;
45694;SDS011;31408;45.468;9.124;2024-01-15T00:52:42;48.35;;;25.00;;
45694;SDS011;31408;45.468;9.124;2024-01-15T00:55:07;50.42;;;27.38;;
45694;SDS011;31408;45.468;9.124;2024-01-15T00:57:33;49.55;;;23.70;;
45694;SDS011;31408;45.468;9.124;2024-01-15T00:59:58;52.53;;;25.48;;
45694;SDS011;31408;45.468;9.124;2024-01-15T01:02:23;50.85;;;24.40;;
45694;SDS011;31408;45.468;9.124;2024-01-15T01:04:49;49.10;;;23.55;;
45694;SDS011;31408;45.468;9.124;2024-01-15T01:07:14;42.80;;;22.42;;
45694;SDS011;31408;45.468;9.124;2024-01-15T01:09:39;50.88;;;27.55;;
45694;SDS011;31408;45.468;9.124;2024-01-15T01:12:05;49.78;;;26.63;;
45694;SDS011;31408;45.468;9.124;2024-01-15T01:14:31;45.13;;;25.15;;
45694;SDS011;31408;45.468;9.124;2024-01-15T01:16:56;49.58;;;24.67;;
45694;SDS011;31408;45.468;9.124;2024-01-15T01:19:22;46.80;;;23.58;;
45694;SDS011;31408;45.468;9.124;2024-01-15T01:21:47;47.95;;;26.15;;
45694;SDS011;31408;45.468;9.124;2024-01-15T01:24:12;52.92;;;26.85;;
45694;SDS011;31408;45.468;9.124;2024-01-15T01:26:38;56.35;;;25.13;;
45694;SDS011;31408;45.468;9.124;2024-01-15T01:29:03;49.78;;;24.65;;
45694;SDS011;31408;45.468;9.124;2024-01-15T01:31:28;43.95;;;21.42;;
45694;SDS011;31408;45.468;9.124;2024-01-15T01:33:54;53.13;;;24.58;;
45694;SDS011;31408;45.468;9.124;2024-01-15T01:36:19;53.60;;;27.15;;
45694;SDS011;31408;45.468;9.124;2024-01-15T01:38:44;52.42;;;26.88;;
45694;SDS011;31408;45.468;9.124;2024-01-15T01:41:10;46.85;;;24.67;;
45694;SDS011;31408;45.468;9.124;2024-01-15T01:43:36;42.22;;;23.75;;
45694;SDS011;31408;45.468;9.124;2024-01-15T01:46:01;44.95;;;21.35;;
45694;SDS011;31408;45.468;9.124;2024-01-15T01:48:28;49.70;;;24.23;;
45694;SDS011;31408;45.468;9.124;2024-01-15T01:50:54;49.00;;;26.65;;
45694;SDS011;31408;45.468;9.124;2024-01-15T01:53:20;47.53;;;26.10;;
45694;SDS011;31408;45.468;9.124;2024-01-15T01:55:45;48.28;;;26.15;;
45694;SDS011;31408;45.468;9.124;2024-01-15T01:58:11;47.50;;;24.40;;
45694;SDS011;31408;45.468;9.124;2024-01-15T02:00:36;53.88;;;26.10;;
45694;SDS011;31408;45.468;9.124;2024-01-15T02:03:01;46.70;;;24.83;;
45694;SDS011;31408;45.468;9.124;2024-01-15T02:05:28;49.72;;;25.17;;
45694;SDS011;31408;45.468;9.124;2024-01-15T02:07:54;52.03;;;25.55;;
45694;SDS011;31408;45.468;9.124;2024-01-15T02:10:19;54.70;;;26.33;;
45694;SDS011;31408;45.468;9.124;2024-01-15T02:12:44;54.67;;;26.95;;
45694;SDS011;31408;45.468;9.124;2024-01-15T02:15:10;57.40;;;29.77;;
45694;SDS011;31408;45.468;9.124;2024-01-15T02:17:35;56.10;;;27.60;;
45694;SDS011;31408;45.468;9.124;2024-01-15T02:20:20;48.40;;;25.08;;
45694;SDS011;31408;45.468;9.124;2024-01-15T02:22:45;53.13;;;28.88;;
45694;SDS011;31408;45.468;9.124;2024-01-15T02:25:11;51.85;;;27.48;;
45694;SDS011;31408;45.468;9.124;2024-01-15T02:27:36;47.13;;;26.33;;
45694;SDS011;31408;45.468;9.124;2024-01-15T02:30:01;51.67;;;28.35;;
45694;SDS011;31408;45.468;9.124;2024-01-15T02:32:27;49.42;;;25.73;;
45694;SDS011;31408;45.468;9.124;2024-01-15T02:34:52;49.65;;;26.42;;
45694;SDS011;31408;45.468;9.124;2024-01-15T02:37:17;46.65;;;24.95;;
45694;SDS011;31408;45.468;9.124;2024-01-15T02:39:43;50.40;;;26.88;;
45694;SDS011;31408;45.468;9.124;2024-01-15T02:42:08;50.03;;;26.75;;
45694;SDS011;31408;45.468;9.124;2024-01-15T02:44:33;51.03;;;27.17;;
45694;SDS011;31408;45.468;9.124;2024-01-15T02:46:59;51.53;;;25.58;;
45694;SDS011;31408;45.468;9.124;2024-01-15T02:49:24;48.92;;;24.73;;
45694;SDS011;31408;45.468;9.124;2024-01-15T02:51:49;53.53;;;26.63;;
45694;SDS011;31408;45.468;9.124;2024-01-15T02:54:15;52.38;;;24.77;;
45694;SDS011;31408;45.468;9.124;2024-01-15T02:56:40;50.63;;;26.05;;
45694;SDS011;31408;45.468;9.124;2024-01-15T02:59:05;55.30;;;29.77;;
45694;SDS011;31408;45.468;9.124;2024-01-15T03:01:31;46.13;;;23.50;;
45694;SDS011;31408;45.468;9.124;2024-01-15T03:03:56;48.70;;;24.77;;
45694;SDS011;31408;45.468;9.124;2024-01-15T03:06:22;54.35;;;28.20;;
45694;SDS011;31408;45.468;9.124;2024-01-15T03:08:47;49.20;;;26.70;;
45694;SDS011;31408;45.468;9.124;2024-01-15T03:11:13;50.53;;;24.50;;
45694;SDS011;31408;45.468;9.124;2024-01-15T03:13:38;53.72;;;26.80;;
45694;SDS011;31408;45.468;9.124;2024-01-15T03:16:04;53.97;;;28.40;;
45694;SDS011;31408;45.468;9.124;2024-01-15T03:18:29;53.72;;;25.55;;
45694;SDS011;31408;45.468;9.124;2024-01-15T03:20:55;45.50;;;24.70;;
45694;SDS011;31408;45.468;9.124;2024-01-15T03:23:20;51.75;;;25.02;;
45694;SDS011;31408;45.468;9.124;2024-01-15T03:25:45;50.33;;;25.30;;
45694;SDS011;31408;45.468;9.124;2024-01-15T03:28:11;53.25;;;26.42;;
45694;SDS011;31408;45.468;9.124;2024-01-15T03:30:36;56.30;;;27.80;;
45694;SDS011;31408;45.468;9.124;2024-01-15T03:33:02;49.55;;;25.33;;
45694;SDS011;31408;45.468;9.124;2024-01-15T03:35:27;51.00;;;26.70;;
45694;SDS011;31408;45.468;9.124;2024-01-15T03:37:54;46.40;;;25.08;;
45694;SDS011;31408;45.468;9.124;2024-01-15T03:40:19;55.97;;;24.95;;
45694;SDS011;31408;45.468;9.124;2024-01-15T03:42:45;47.25;;;26.45;;
45694;SDS011;31408;45.468;9.124;2024-01-15T03:45:10;52.13;;;25.20;;
45694;SDS011;31408;45.468;9.124;2024-01-15T03:47:35;59.65;;;30.90;;
45694;SDS011;31408;45.468;9.124;2024-01-15T03:50:01;51.10;;;25.95;;
45694;SDS011;31408;45.468;9.124;2024-01-15T03:52:26;50.55;;;25.65;;
45694;SDS011;31408;45.468;9.124;2024-01-15T03:54:51;51.60;;;28.70;;
45694;SDS011;31408;45.468;9.124;2024-01-15T03:57:17;54.90;;;28.35;;
45694;SDS011;31408;45.468;9.124;2024-01-15T03:59:42;49.45;;;24.73;;
45694;SDS011;31408;45.468;9.124;2024-01-15T04:02:07;49.22;;;26.50;;
45694;SDS011;31408;45.468;9.124;2024-01-15T04:04:33;52.13;;;28.00;;
45694;SDS011;31408;45.468;9.124;2024-01-15T04:06:58;51.67;;;26.42;;
45694;SDS011;31408;45.468;9.124;2024-01-15T04:09:23;55.90;;;26.00;;
45694;SDS011;31408;45.468;9.124;2024-01-15T04:11:49;52.40;;;28.38;;
45694;SDS011;31408;45.468;9.124;2024-01-15T04:14:14;46.17;;;25.48;;
45694;SDS011;31408;45.468;9.124;2024-01-15T04:16:40;49.80;;;26.73;;
45694;SDS011;31408;45.468;9.124;2024-01-15T04:19:06;58.75;;;26.70;;
45694;SDS011;31408;45.468;9.124;2024-01-15T04:21:31;52.15;;;28.33;;
45694;SDS011;31408;45.468;9.124;2024-01-15T04:23:57;52.22;;;26.90;;
45694;SDS011;31408;45.468;9.124;2024-01-15T04:26:22;49.30;;;28.45;;
45694;SDS011;31408;45.468;9.124;2024-01-15T04:28:48;48.58;;;26.65;;
45694;SDS011;31408;45.468;9.124;2024-01-15T04:31:25;47.47;;;26.90;;
45694;SDS011;31408;45.468;9.124;2024-01-15T04:33:54;58.05;;;28.85;;
45694;SDS011;31408;45.468;9.124;2024-01-15T04:36:19;49.25;;;24.73;;
45694;SDS011;31408;45.468;9.124;2024-01-15T04:38:44;52.50;;;26.67;;
45694;SDS011;31408;45.468;9.124;2024-01-15T04:41:13;52.63;;;27.25;;
45694;SDS011;31408;45.468;9.124;2024-01-15T04:43:38;47.45;;;26.08;;
45694;SDS011;31408;45.468;9.124;2024-01-15T04:46:05;47.45;;;25.17;;
45694;SDS011;31408;45.468;9.124;2024-01-15T04:48:30;53.22;;;27.67;;
45694;SDS011;31408;45.468;9.124;2024-01-15T04:50:56;52.25;;;25.65;;
45694;SDS011;31408;45.468;9.124;2024-01-15T04:53:21;48.15;;;27.27;;
45694;SDS011;31408;45.468;9.124;2024-01-15T04:55:46;48.35;;;26.48;;
45694;SDS011;31408;45.468;9.124;2024-01-15T04:58:11;42.47;;;23.17;;
45694;SDS011;31408;45.468;9.124;2024-01-15T05:00:37;45.05;;;24.95;;
45694;SDS011;31408;45.468;9.124;2024-01-15T05:03:02;46.90;;;28.05;;
45694;SDS011;31408;45.468;9.124;2024-01-15T05:05:28;54.47;;;26.48;;
45694;SDS011;31408;45.468;9.124;2024-01-15T05:07:53;57.70;;;28.58;;
45694;SDS011;31408;45.468;9.124;2024-01-15T05:10:18;47.95;;;25.45;;
45694;SDS011;31408;45.468;9.124;2024-01-15T05:12:44;57.25;;;29.83;;
45694;SDS011;31408;45.468;9.124;2024-01-15T05:15:09;47.53;;;25.48;;
45694;SDS011;31408;45.468;9.124;2024-01-15T05:17:34;52.17;;;27.98;;
45694;SDS011;31408;45.468;9.124;2024-01-15T05:20:00;53.45;;;28.60;;
45694;SDS011;31408;45.468;9.124;2024-01-15T05:22:25;46.83;;;27.00;;
45694;SDS011;31408;45.468;9.124;2024-01-15T05:24:50;56.42;;;27.85;;
45694;SDS011;31408;45.468;9.124;2024-01-15T05:27:16;51.13;;;28.05;;
45694;SDS011;31408;45.468;9.124;2024-01-15T05:29:41;54.63;;;28.10;;
45694;SDS011;31408;45.468;9.124;2024-01-15T05:32:06;48.22;;;26.80;;
45694;SDS011;31408;45.468;9.124;2024-01-15T05:34:32;57.55;;;28.42;;
45694;SDS011;31408;45.468;9.124;2024-01-15T05:36:57;51.85;;;25.90;;
45694;SDS011;31408;45.468;9.124;2024-01-15T05:39:22;47.60;;;25.05;;
45694;SDS011;31408;45.468;9.124;2024-01-15T05:41:48;54.05;;;27.13;;
45694;SDS011;31408;45.468;9.124;2024-01-15T05:44:13;46.55;;;24.23;;
45694;SDS011;31408;45.468;9.124;2024-01-15T05:46:38;49.00;;;26.42;;
45694;SDS011;31408;45.468;9.124;2024-01-15T05:49:04;49.63;;;28.27;;
45694;SDS011;31408;45.468;9.124;2024-01-15T05:51:29;55.22;;;28.83;;
45694;SDS011;31408;45.468;9.124;2024-01-15T05:53:54;50.28;;;26.80;;
45694;SDS011;31408;45.468;9.124;2024-01-15T05:56:19;49.25;;;27.02;;
45694;SDS011;31408;45.468;9.124;2024-01-15T05:58:45;46.47;;;26.52;;
45694;SDS011;31408;45.468;9.124;2024-01-15T06:01:10;48.38;;;26.27;;
45694;SDS011;31408;45.468;9.124;2024-01-15T06:03:36;49.45;;;28.38;;
45694;SDS011;31408;45.468;9.124;2024-01-15T06:06:01;54.85;;;27.80;;
45694;SDS011;31408;45.468;9.124;2024-01-15T06:08:27;51.50;;;27.25;;
45694;SDS011;31408;45.468;9.124;2024-01-15T06:10:53;53.83;;;28.15;;
45694;SDS011;31408;45.468;9.124;2024-01-15T06:13:18;53.65;;;30.63;;
45694;SDS011;31408;45.468;9.124;2024-01-15T06:15:43;56.28;;;30.98;;
45694;SDS011;31408;45.468;9.124;2024-01-15T06:18:09;54.88;;;28.90;;
45694;SDS011;31408;45.468;9.124;2024-01-15T06:20:34;59.67;;;32.15;;
45694;SDS011;31408;45.468;9.124;2024-01-15T06:23:00;56.28;;;29.45;;
45694;SDS011;31408;45.468;9.124;2024-01-15T06:25:25;52.22;;;28.92;;
45694;SDS011;31408;45.468;9.124;2024-01-15T06:27:50;61.30;;;30.20;;
45694;SDS011;31408;45.468;9.124;2024-01-15T06:30:16;60.20;;;29.90;;
45694;SDS011;31408;45.468;9.124;2024-01-15T06:32:41;60.90;;;29.15;;
45694;SDS011;31408;45.468;9.124;2024-01-15T06:35:07;53.65;;;29.80;;
45694;SDS011;31408;45.468;9.124;2024-01-15T06:37:32;54.88;;;29.30;;
45694;SDS011;31408;45.468;9.124;2024-01-15T06:39:57;51.28;;;27.20;;
45694;SDS011;31408;45.468;9.124;2024-01-15T06:42:23;52.13;;;26.10;;
45694;SDS011;31408;45.468;9.124;2024-01-15T06:44:48;60.42;;;30.00;;
45694;SDS011;31408;45.468;9.124;2024-01-15T06:47:14;51.05;;;24.80;;
45694;SDS011;31408;45.468;9.124;2024-01-15T06:49:39;51.33;;;26.33;;
45694;SDS011;31408;45.468;9.124;2024-01-15T06:52:05;58.92;;;29.08;;
45694;SDS011;31408;45.468;9.124;2024-01-15T06:54:31;52.92;;;29.73;;
45694;SDS011;31408;45.468;9.124;2024-01-15T06:56:56;50.00;;;27.20;;
45694;SDS011;31408;45.468;9.124;2024-01-15T06:59:22;49.90;;;28.92;;
45694;SDS011;31408;45.468;9.124;2024-01-15T07:01:47;51.22;;;25.42;;
45694;SDS011;31408;45.468;9.124;2024-01-15T07:04:12;57.30;;;28.52;;
45694;SDS011;31408;45.468;9.124;2024-01-15T07:06:38;60.83;;;28.60;;
45694;SDS011;31408;45.468;9.124;2024-01-15T07:09:04;49.67;;;25.20;;
45694;SDS011;31408;45.468;9.124;2024-01-15T07:11:29;56.60;;;26.73;;
45694;SDS011;31408;45.468;9.124;2024-01-15T07:13:54;56.60;;;26.42;;
45694;SDS011;31408;45.468;9.124;2024-01-15T07:16:20;54.53;;;27.58;;
45694;SDS011;31408;45.468;9.124;2024-01-15T07:18:45;50.65;;;27.30;;
45694;SDS011;31408;45.468;9.124;2024-01-15T07:21:10;57.35;;;27.77;;
45694;SDS011;31408;45.468;9.124;2024-01-15T07:23:36;56.38;;;27.52;;
45694;SDS011;31408;45.468;9.124;2024-01-15T07:26:01;56.50;;;29.02;;
45694;SDS011;31408;45.468;9.124;2024-01-15T07:28:30;41.67;;;25.80;;
45694;SDS011;31408;45.468;9.124;2024-01-15T07:30:55;47.90;;;25.30;;
45694;SDS011;31408;45.468;9.124;2024-01-15T07:33:21;52.38;;;28.00;;
45694;SDS011;31408;45.468;9.124;2024-01-15T07:35:46;46.97;;;27.98;;
45694;SDS011;31408;45.468;9.124;2024-01-15T07:38:11;60.15;;;28.70;;
45694;SDS011;31408;45.468;9.124;2024-01-15T07:40:37;55.35;;;27.10;;
45694;SDS011;31408;45.468;9.124;2024-01-15T07:43:02;53.13;;;27.27;;
45694;SDS011;31408;45.468;9.124;2024-01-15T07:45:28;55.20;;;28.15;;
45694;SDS011;31408;45.468;9.124;2024-01-15T07:47:53;52.33;;;29.45;;
45694;SDS011;31408;45.468;9.124;2024-01-15T07:50:18;56.90;;;27.67;;
45694;SDS011;31408;45.468;9.124;2024-01-15T07:52:44;48.60;;;24.15;;
45694;SDS011;31408;45.468;9.124;2024-01-15T07:55:09;58.78;;;27.58;;
45694;SDS011;31408;45.468;9.124;2024-01-15T07:57:34;54.58;;;26.88;;
45694;SDS011;31408;45.468;9.124;2024-01-15T08:00:01;55.75;;;29.50;;
45694;SDS011;31408;45.468;9.124;2024-01-15T08:02:26;51.97;;;26.60;;
45694;SDS011;31408;45.468;9.124;2024-01-15T08:04:52;49.65;;;26.02;;
45694;SDS011;31408;45.468;9.124;2024-01-15T08:07:17;54.60;;;28.27;;
45694;SDS011;31408;45.468;9.124;2024-01-15T08:09:43;55.75;;;30.70;;
45694;SDS011;31408;45.468;9.124;2024-01-15T08:12:18;68.55;;;37.17;;
45694;SDS011;31408;45.468;9.124;2024-01-15T08:14:43;75.65;;;35.28;;
45694;SDS011;31408;45.468;9.124;2024-01-15T08:17:09;66.32;;;34.63;;
45694;SDS011;31408;45.468;9.124;2024-01-15T08:19:34;55.38;;;26.08;;
45694;SDS011;31408;45.468;9.124;2024-01-15T08:21:59;53.42;;;27.58;;
45694;SDS011;31408;45.468;9.124;2024-01-15T08:24:25;64.22;;;27.88;;
45694;SDS011;31408;45.468;9.124;2024-01-15T08:26:50;55.10;;;28.65;;
45694;SDS011;31408;45.468;9.124;2024-01-15T08:29:16;53.50;;;29.00;;
45694;SDS011;31408;45.468;9.124;2024-01-15T08:31:41;57.97;;;30.13;;
45694;SDS011;31408;45.468;9.124;2024-01-15T08:34:06;50.50;;;28.20;;
45694;SDS011;31408;45.468;9.124;2024-01-15T08:36:32;50.35;;;28.23;;
45694;SDS011;31408;45.468;9.124;2024-01-15T08:38:59;55.08;;;27.95;;
45694;SDS011;31408;45.468;9.124;2024-01-15T08:41:25;59.58;;;30.17;;
45694;SDS011;31408;45.468;9.124;2024-01-15T08:43:50;55.92;;;28.65;;
45694;SDS011;31408;45.468;9.124;2024-01-15T08:46:16;60.65;;;29.63;;
45694;SDS011;31408;45.468;9.124;2024-01-15T08:48:41;66.47;;;30.58;;
45694;SDS011;31408;45.468;9.124;2024-01-15T08:51:07;59.45;;;30.90;;
45694;SDS011;31408;45.468;9.124;2024-01-15T08:53:33;59.30;;;28.63;;
45694;SDS011;31408;45.468;9.124;2024-01-15T08:55:58;54.28;;;30.85;;
45694;SDS011;31408;45.468;9.124;2024-01-15T08:58:23;48.58;;;29.50;;
45694;SDS011;31408;45.468;9.124;2024-01-15T09:00:49;66.70;;;32.63;;
45694;SDS011;31408;45.468;9.124;2024-01-15T09:03:16;56.35;;;29.50;;
45694;SDS011;31408;45.468;9.124;2024-01-15T09:05:41;55.90;;;29.45;;
45694;SDS011;31408;45.468;9.124;2024-01-15T09:08:07;64.63;;;32.65;;
45694;SDS011;31408;45.468;9.124;2024-01-15T09:10:33;62.72;;;33.05;;
45694;SDS011;31408;45.468;9.124;2024-01-15T09:12:58;59.65;;;30.48;;
45694;SDS011;31408;45.468;9.124;2024-01-15T09:15:25;58.65;;;29.95;;
45694;SDS011;31408;45.468;9.124;2024-01-15T09:17:50;55.97;;;28.08;;
45694;SDS011;31408;45.468;9.124;2024-01-15T09:20:16;57.10;;;32.45;;
45694;SDS011;31408;45.468;9.124;2024-01-15T09:22:41;54.08;;;30.63;;
45694;SDS011;31408;45.468;9.124;2024-01-15T09:25:08;55.13;;;29.88;;
45694;SDS011;31408;45.468;9.124;2024-01-15T09:27:34;51.90;;;29.10;;
45694;SDS011;31408;45.468;9.124;2024-01-15T09:30:00;55.97;;;29.90;;
45694;SDS011;31408;45.468;9.124;2024-01-15T09:32:25;50.00;;;27.88;;
45694;SDS011;31408;45.468;9.124;2024-01-15T09:34:50;56.38;;;27.67;;
45694;SDS011;31408;45.468;9.124;2024-01-15T09:37:16;46.30;;;25.35;;
45694;SDS011;31408;45.468;9.124;2024-01-15T09:39:41;60.25;;;27.40;;
45694;SDS011;31408;45.468;9.124;2024-01-15T09:42:07;60.05;;;25.98;;
45694;SDS011;31408;45.468;9.124;2024-01-15T09:44:32;50.58;;;27.15;;
45694;SDS011;31408;45.468;9.124;2024-01-15T09:46:58;51.22;;;26.92;;
45694;SDS011;31408;45.468;9.124;2024-01-15T09:49:23;51.83;;;29.20;;
45694;SDS011;31408;45.468;9.124;2024-01-15T09:51:49;48.25;;;25.15;;
45694;SDS011;31408;45.468;9.124;2024-01-15T09:54:15;57.15;;;27.77;;
45694;SDS011;31408;45.468;9.124;2024-01-15T09:56:44;52.60;;;26.77;;
45694;SDS011;31408;45.468;9.124;2024-01-15T09:59:10;49.88;;;26.08;;
45694;SDS011;31408;45.468;9.124;2024-01-15T10:01:36;51.28;;;26.17;;
45694;SDS011;31408;45.468;9.124;2024-01-15T10:04:03;49.00;;;28.15;;
45694;SDS011;31408;45.468;9.124;2024-01-15T10:06:28;54.20;;;29.33;;
45694;SDS011;31408;45.468;9.124;2024-01-15T10:08:54;47.53;;;26.17;;
45694;SDS011;31408;45.468;9.124;2024-01-15T10:11:21;51.38;;;28.42;;
45694;SDS011;31408;45.468;9.124;2024-01-15T10:13:47;54.17;;;29.20;;
45694;SDS011;31408;45.468;9.124;2024-01-15T10:16:12;59.33;;;28.92;;
45694;SDS011;31408;45.468;9.124;2024-01-15T10:18:38;47.50;;;26.60;;
45694;SDS011;31408;45.468;9.124;2024-01-15T10:21:06;65.05;;;28.02;;
45694;SDS011;31408;45.468;9.124;2024-01-15T10:23:34;55.40;;;27.98;;
45694;SDS011;31408;45.468;9.124;2024-01-15T10:26:01;59.45;;;30.90;;
45694;SDS011;31408;45.468;9.124;2024-01-15T10:28:27;61.03;;;30.98;;
45694;SDS011;31408;45.468;9.124;2024-01-15T10:30:55;55.17;;;28.58;;
45694;SDS011;31408;45.468;9.124;2024-01-15T10:33:24;57.17;;;30.80;;
45694;SDS011;31408;45.468;9.124;2024-01-15T10:35:51;64.43;;;28.38;;
45694;SDS011;31408;45.468;9.124;2024-01-15T10:38:18;69.18;;;28.05;;
45694;SDS011;31408;45.468;9.124;2024-01-15T10:40:47;55.75;;;27.42;;
45694;SDS011;31408;45.468;9.124;2024-01-15T10:43:12;51.80;;;26.23;;
45694;SDS011;31408;45.468;9.124;2024-01-15T10:45:37;50.75;;;26.67;;
45694;SDS011;31408;45.468;9.124;2024-01-15T10:48:03;57.33;;;26.92;;
45694;SDS011;31408;45.468;9.124;2024-01-15T10:50:29;47.58;;;26.77;;
45694;SDS011;31408;45.468;9.124;2024-01-15T10:52:54;47.20;;;25.85;;
45694;SDS011;31408;45.468;9.124;2024-01-15T10:55:20;50.38;;;26.80;;
45694;SDS011;31408;45.468;9.124;2024-01-15T10:57:46;45.22;;;28.52;;
45694;SDS011;31408;45.468;9.124;2024-01-15T11:00:17;40.03;;;23.40;;
45694;SDS011;31408;45.468;9.124;2024-01-15T11:02:42;48.42;;;22.70;;
45694;SDS011;31408;45.468;9.124;2024-01-15T11:05:08;43.05;;;22.88;;
45694;SDS011;31408;45.468;9.124;2024-01-15T11:07:33;43.92;;;23.85;;
45694;SDS011;31408;45.468;9.124;2024-01-15T11:09:59;42.05;;;23.38;;
45694;SDS011;31408;45.468;9.124;2024-01-15T11:12:24;37.88;;;20.33;;
45694;SDS011;31408;45.468;9.124;2024-01-15T11:14:50;42.35;;;24.13;;
45694;SDS011;31408;45.468;9.124;2024-01-15T11:17:16;43.70;;;23.85;;
45694;SDS011;31408;45.468;9.124;2024-01-15T11:22:10;40.47;;;21.67;;
45694;SDS011;31408;45.468;9.124;2024-01-15T11:24:55;39.10;;;20.20;;
45694;SDS011;31408;45.468;9.124;2024-01-15T11:30:07;38.65;;;19.90;;
45694;SDS011;31408;45.468;9.124;2024-01-15T11:32:34;40.92;;;20.70;;
45694;SDS011;31408;45.468;9.124;2024-01-15T11:35:01;38.85;;;19.80;;
45694;SDS011;31408;45.468;9.124;2024-01-15T11:37:56;37.72;;;20.98;;
45694;SDS011;31408;45.468;9.124;2024-01-15T11:40:12;35.55;;;19.45;;
45694;SDS011;31408;45.468;9.124;2024-01-15T11:42:39;38.25;;;21.17;;
45694;SDS011;31408;45.468;9.124;2024-01-15T11:45:04;41.25;;;19.40;;
45694;SDS011;31408;45.468;9.124;2024-01-15T11:50:14;34.50;;;17.10;;
45694;SDS011;31408;45.468;9.124;2024-01-15T11:52:39;37.28;;;18.20;;
45694;SDS011;31408;45.468;9.124;2024-01-15T11:55:16;38.28;;;16.63;;
45694;SDS011;31408;45.468;9.124;2024-01-15T11:57:50;35.05;;;18.27;;
45694;SDS011;31408;45.468;9.124;2024-01-15T12:00:16;33.92;;;16.63;;
45694;SDS011;31408;45.468;9.124;2024-01-15T12:02:42;32.75;;;16.65;;
45694;SDS011;31408;45.468;9.124;2024-01-15T12:05:09;30.25;;;15.40;;
45694;SDS011;31408;45.468;9.124;2024-01-15T12:07:34;31.17;;;17.55;;
45694;SDS011;31408;45.468;9.124;2024-01-15T12:10:00;30.60;;;17.02;;
45694;SDS011;31408;45.468;9.124;2024-01-15T12:12:33;30.27;;;16.95;;
45694;SDS011;31408;45.468;9.124;2024-01-15T12:15:00;36.53;;;17.17;;
45694;SDS011;31408;45.468;9.124;2024-01-15T12:17:25;31.30;;;16.08;;
45694;SDS011;31408;45.468;9.124;2024-01-15T12:19:51;29.58;;;15.85;;
45694;SDS011;31408;45.468;9.124;2024-01-15T12:22:16;33.88;;;17.10;;
45694;SDS011;31408;45.468;9.124;2024-01-15T12:24:41;30.15;;;15.38;;
45694;SDS011;31408;45.468;9.124;2024-01-15T12:27:07;29.15;;;15.38;;
45694;SDS011;31408;45.468;9.124;2024-01-15T12:29:33;30.25;;;15.27;;
45694;SDS011;31408;45.468;9.124;2024-01-15T12:31:58;35.17;;;17.10;;
45694;SDS011;31408;45.468;9.124;2024-01-15T12:34:23;22.80;;;13.07;;
45694;SDS011;31408;45.468;9.124;2024-01-15T12:36:49;35.00;;;15.95;;
45694;SDS011;31408;45.468;9.124;2024-01-15T12:39:14;28.70;;;13.60;;
45694;SDS011;31408;45.468;9.124;2024-01-15T12:41:40;38.83;;;17.30;;
45694;SDS011;31408;45.468;9.124;2024-01-15T12:44:06;29.48;;;15.15;;
45694;SDS011;31408;45.468;9.124;2024-01-15T12:46:32;29.20;;;14.50;;
45694;SDS011;31408;45.468;9.124;2024-01-15T12:48:57;33.78;;;13.10;;
45694;SDS011;31408;45.468;9.124;2024-01-15T12:51:26;31.40;;;14.88;;
45694;SDS011;31408;45.468;9.124;2024-01-15T12:53:51;30.67;;;15.27;;
45694;SDS011;31408;45.468;9.124;2024-01-15T12:56:17;33.33;;;15.23;;
45694;SDS011;31408;45.468;9.124;2024-01-15T12:58:42;26.98;;;14.27;;
45694;SDS011;31408;45.468;9.124;2024-01-15T13:01:08;32.95;;;17.00;;
45694;SDS011;31408;45.468;9.124;2024-01-15T13:03:33;29.77;;;15.80;;
45694;SDS011;31408;45.468;9.124;2024-01-15T13:05:58;33.75;;;16.50;;
45694;SDS011;31408;45.468;9.124;2024-01-15T13:08:24;35.95;;;16.05;;
45694;SDS011;31408;45.468;9.124;2024-01-15T13:10:51;30.88;;;15.65;;
45694;SDS011;31408;45.468;9.124;2024-01-15T13:13:17;35.80;;;17.45;;
45694;SDS011;31408;45.468;9.124;2024-01-15T13:15:43;37.90;;;17.63;;
45694;SDS011;31408;45.468;9.124;2024-01-15T13:18:08;33.30;;;17.73;;
45694;SDS011;31408;45.468;9.124;2024-01-15T13:20:34;34.25;;;19.00;;
45694;SDS011;31408;45.468;9.124;2024-01-15T13:23:00;32.80;;;17.40;;
45694;SDS011;31408;45.468;9.124;2024-01-15T13:25:25;33.50;;;16.80;;
45694;SDS011;31408;45.468;9.124;2024-01-15T13:27:50;30.40;;;14.02;;
45694;SDS011;31408;45.468;9.124;2024-01-15T13:30:17;32.67;;;15.63;;
45694;SDS011;31408;45.468;9.124;2024-01-15T13:32:42;29.90;;;14.48;;
45694;SDS011;31408;45.468;9.124;2024-01-15T13:35:08;30.42;;;14.88;;
45694;SDS011;31408;45.468;9.124;2024-01-15T13:37:34;27.73;;;13.38;;
45694;SDS011;31408;45.468;9.124;2024-01-15T13:40:00;22.40;;;10.68;;
45694;SDS011;31408;45.468;9.124;2024-01-15T13:42:25;25.38;;;12.45;;
45694;SDS011;31408;45.468;9.124;2024-01-15T13:44:52;26.33;;;12.20;;
45694;SDS011;31408;45.468;9.124;2024-01-15T13:47:17;23.98;;;10.95;;
45694;SDS011;31408;45.468;9.124;2024-01-15T13:49:43;20.77;;;9.50;;
45694;SDS011;31408;45.468;9.124;2024-01-15T13:52:08;22.83;;;9.10;;
45694;SDS011;31408;45.468;9.124;2024-01-15T13:54:34;26.98;;;8.98;;
45694;SDS011;31408;45.468;9.124;2024-01-15T13:56:59;23.98;;;11.02;;
45694;SDS011;31408;45.468;9.124;2024-01-15T13:59:24;16.85;;;8.02;;
45694;SDS011;31408;45.468;9.124;2024-01-15T14:01:50;17.65;;;8.85;;
45694;SDS011;31408;45.468;9.124;2024-01-15T14:04:15;17.23;;;8.63;;
45694;SDS011;31408;45.468;9.124;2024-01-15T14:06:41;18.55;;;9.15;;
45694;SDS011;31408;45.468;9.124;2024-01-15T14:09:06;19.33;;;9.55;;
45694;SDS011;31408;45.468;9.124;2024-01-15T14:11:35;18.73;;;7.95;;
45694;SDS011;31408;45.468;9.124;2024-01-15T14:14:00;16.38;;;8.35;;
45694;SDS011;31408;45.468;9.124;2024-01-15T14:16:25;18.27;;;8.20;;
45694;SDS011;31408;45.468;9.124;2024-01-15T14:18:51;19.52;;;9.55;;
45694;SDS011;31408;45.468;9.124;2024-01-15T14:21:16;21.25;;;10.50;;